Time;durP1;ratioP1;P1;durP2;ratioP2;P2;SDS_P1;SDS_P2;PMS_P1;PMS_P2;Temp;Humidity;BMP_temperature;BMP_pressure;BME280_temperature;BME280_humidity;BME280_pressure;Samples;Min_cycle;Max_cycle;Signal;HPM_P1;HPM_P2
2023/06/07 00:01:06;;;;;;;20.33;9.60;;;;;;;16.04;100.00;98843.22;5021492;28;20045;-92
2023/06/07 00:03:32;;;;;;;21.10;8.55;;;;;;;16.01;100.00;98835.34;5022416;28;20065;-92
2023/06/07 00:06:00;;;;;;;22.95;8.77;;;;;;;16.05;100.00;98844.97;5021510;28;20047;-91
2023/06/07 00:08:26;;;;;;;22.27;9.50;;;;;;;16.12;100.00;98843.72;5024155;28;20045;-93
2023/06/07 00:10:52;;;;;;;17.88;8.60;;;;;;;16.21;100.00;98837.91;5019986;28;20049;-93
2023/06/07 00:13:18;;;;;;;22.38;8.93;;;;;;;16.11;100.00;98814.28;5021928;28;20137;-94
2023/06/07 00:15:45;;;;;;;18.23;8.05;;;;;;;16.22;100.00;98807.47;5039516;28;20510;-93
2023/06/07 00:18:11;;;;;;;22.80;9.52;;;;;;;16.42;100.00;98821.72;5019896;28;20520;-94
2023/06/07 00:20:37;;;;;;;21.08;8.90;;;;;;;16.43;100.00;98808.19;5019477;28;20037;-94
2023/06/07 00:23:05;;;;;;;20.55;8.88;;;;;;;16.73;100.00;98826.38;5017047;28;20041;-93
2023/06/07 00:25:31;;;;;;;21.77;8.95;;;;;;;16.47;100.00;98784.75;5023809;28;20108;-93
2023/06/07 00:27:56;;;;;;;21.33;10.35;;;;;;;16.69;100.00;98815.88;5023468;28;20047;-92
2023/06/07 00:30:22;;;;;;;19.05;8.70;;;;;;;16.66;100.00;98816.91;5022984;28;20487;-93
2023/06/07 00:32:49;;;;;;;18.60;9.20;;;;;;;16.69;100.00;98827.47;5023532;28;20129;-94
2023/06/07 00:35:15;;;;;;;22.98;8.73;;;;;;;16.62;100.00;98821.56;5021490;28;20040;-93
2023/06/07 00:37:41;;;;;;;22.35;9.75;;;;;;;16.53;100.00;98810.44;5025787;28;20052;-92
2023/06/07 00:40:08;;;;;;;20.02;8.68;;;;;;;16.58;100.00;98817.28;5022067;28;20064;-91
2023/06/07 00:42:34;;;;;;;21.65;9.07;;;;;;;16.49;100.00;98809.72;5023775;28;20065;-93
2023/06/07 00:45:00;;;;;;;24.85;9.07;;;;;;;16.26;100.00;98792.06;5023329;28;20499;-93
2023/06/07 00:47:26;;;;;;;22.20;9.30;;;;;;;16.28;100.00;98802.72;5025871;28;20072;-92
2023/06/07 00:49:54;;;;;;;20.95;8.68;;;;;;;16.20;100.00;98804.00;5024761;28;21363;-93
2023/06/07 00:52:21;;;;;;;22.40;8.65;;;;;;;16.14;100.00;98804.28;5022491;28;20048;-93
2023/06/07 00:54:47;;;;;;;21.13;8.50;;;;;;;16.15;100.00;98806.00;5019000;28;20029;-93
2023/06/07 00:57:15;;;;;;;20.35;8.40;;;;;;;16.06;100.00;98805.59;5043151;28;20049;-90
2023/06/07 00:59:41;;;;;;;23.43;8.60;;;;;;;15.96;100.00;98803.38;5022798;28;20559;-92
2023/06/07 01:02:07;;;;;;;22.05;8.30;;;;;;;15.87;100.00;98806.47;5015616;28;20314;-93
2023/06/07 01:04:34;;;;;;;18.83;7.78;;;;;;;15.88;100.00;98805.56;5021506;28;20769;-92
2023/06/07 01:07:02;;;;;;;19.58;8.13;;;;;;;15.90;100.00;98817.06;5020553;28;20037;-92
2023/06/07 01:09:30;;;;;;;22.40;9.30;;;;;;;15.74;100.00;98783.88;5020893;28;20096;-92
2023/06/07 01:11:57;;;;;;;21.98;9.30;;;;;;;15.79;100.00;98771.16;5017556;28;20065;-93
2023/06/07 01:14:24;;;;;;;22.67;9.05;;;;;;;15.86;100.00;98790.50;5022633;28;20527;-93
2023/06/07 01:16:52;;;;;;;22.45;9.32;;;;;;;15.73;100.00;98790.22;5017643;28;20135;-92
2023/06/07 01:19:21;;;;;;;25.08;10.60;;;;;;;15.74;100.00;98808.00;5022406;28;20124;-92
2023/06/07 01:21:50;;;;;;;27.23;10.85;;;;;;;15.47;100.00;98772.66;5022127;28;20441;-93
2023/06/07 01:24:18;;;;;;;23.77;9.95;;;;;;;15.45;100.00;98787.91;5022296;28;20431;-94
2023/06/07 01:26:44;;;;;;;29.92;9.95;;;;;;;15.38;100.00;98784.66;5019127;28;20041;-94
2023/06/07 01:29:12;;;;;;;20.58;9.50;;;;;;;15.27;100.00;98770.91;5017602;28;20041;-92
2023/06/07 01:31:40;;;;;;;19.77;9.05;;;;;;;15.38;100.00;98790.03;5016965;28;20407;-92
2023/06/07 01:34:07;;;;;;;20.52;8.95;;;;;;;15.23;100.00;98767.47;5019864;28;20065;-93
2023/06/07 01:36:34;;;;;;;25.42;10.23;;;;;;;15.27;100.00;98779.81;5024475;28;20048;-93
2023/06/07 01:39:03;;;;;;;24.30;9.95;;;;;;;15.29;100.00;98788.63;5021218;28;20043;-91
2023/06/07 01:41:32;;;;;;;24.23;9.73;;;;;;;15.32;100.00;98799.19;5023865;28;20045;-94
2023/06/07 01:43:59;;;;;;;27.10;10.05;;;;;;;15.15;100.00;98775.00;5018855;28;20109;-92
2023/06/07 01:46:26;;;;;;;22.52;9.75;;;;;;;15.22;100.00;98787.16;5021155;28;20575;-93
2023/06/07 01:48:52;;;;;;;26.17;10.63;;;;;;;15.27;100.00;98785.16;5021866;28;20095;-93
2023/06/07 01:51:17;;;;;;;25.50;9.73;;;;;;;15.16;100.00;98766.91;5024735;28;20037;-94
2023/06/07 01:53:45;;;;;;;24.20;10.48;;;;;;;15.20;100.00;98778.31;5017251;28;20041;-93
2023/06/07 01:56:22;;;;;;;23.75;10.00;;;;;;;15.22;100.00;98784.47;5021552;28;20132;-93
2023/06/07 01:59:01;;;;;;;24.23;9.93;;;;;;;14.98;100.00;98748.97;5018394;28;20053;-93
2023/06/07 02:01:36;;;;;;;22.10;10.77;;;;;;;14.94;100.00;98736.66;5017633;28;20038;-93
2023/06/07 02:04:07;;;;;;;26.23;11.43;;;;;;;14.87;100.00;98746.78;5020983;28;20045;-94
2023/06/07 02:06:36;;;;;;;20.83;9.25;;;;;;;14.92;100.00;98751.91;5022115;28;20041;-92
2023/06/07 02:09:07;;;;;;;22.98;9.57;;;;;;;14.93;100.00;98754.53;5020605;28;20049;-93
2023/06/07 02:11:34;;;;;;;23.27;10.45;;;;;;;14.91;100.00;98750.19;5024160;28;20144;-93
2023/06/07 02:14:02;;;;;;;23.75;9.52;;;;;;;14.98;100.00;98782.00;5022504;28;20040;-92
2023/06/07 02:16:32;;;;;;;24.27;9.70;;;;;;;15.03;100.00;98789.81;5017296;28;20065;-94
2023/06/07 02:18:58;;;;;;;24.65;10.30;;;;;;;14.96;100.00;98778.53;5019626;28;20490;-95
2023/06/07 02:21:24;;;;;;;29.88;11.30;;;;;;;14.87;100.00;98770.88;5024686;28;20114;-93
2023/06/07 02:23:51;;;;;;;27.60;10.98;;;;;;;14.79;100.00;98760.53;5025215;28;20403;-94
2023/06/07 02:26:17;;;;;;;31.63;11.32;;;;;;;15.02;100.00;98789.88;5021396;28;20398;-93
2023/06/07 02:28:42;;;;;;;26.20;11.00;;;;;;;14.74;100.00;98754.47;5019866;28;20045;-92
2023/06/07 02:31:10;;;;;;;29.85;10.77;;;;;;;14.91;100.00;98780.50;5023015;28;20119;-94
2023/06/07 02:33:35;;;;;;;28.02;9.88;;;;;;;14.90;100.00;98783.28;5028510;28;20495;-93
2023/06/07 02:36:02;;;;;;;23.35;10.30;;;;;;;14.90;100.00;98797.53;5022831;28;20055;-93
2023/06/07 02:38:28;;;;;;;24.48;9.63;;;;;;;14.76;100.00;98782.06;5025841;28;20124;-92
2023/06/07 02:40:55;;;;;;;23.58;11.20;;;;;;;14.75;100.00;98787.50;5023203;28;20124;-93
2023/06/07 02:43:21;;;;;;;22.90;9.52;;;;;;;14.69;100.00;98791.31;5026075;28;20119;-92
2023/06/07 02:45:46;;;;;;;23.80;9.23;;;;;;;14.64;100.00;98787.06;5021100;28;20140;-93
2023/06/07 02:48:16;;;;;;;30.08;10.10;;;;;;;14.61;100.00;98774.69;5025908;28;20041;-93
2023/06/07 02:50:42;;;;;;;25.88;8.95;;;;;;;14.48;100.00;98760.94;5025547;28;20113;-92
2023/06/07 02:53:08;;;;;;;23.30;9.00;;;;;;;14.56;100.00;98782.06;5022724;28;20041;-94
2023/06/07 02:55:33;;;;;;;25.55;10.73;;;;;;;14.48;100.00;98785.03;5025854;28;20168;-92
2023/06/07 02:57:59;;;;;;;25.30;10.00;;;;;;;14.56;100.00;98796.31;5026194;28;20048;-92
2023/06/07 03:00:26;;;;;;;29.55;11.30;;;;;;;14.59;100.00;98787.28;5027696;28;20048;-93
2023/06/07 03:02:51;;;;;;;24.63;9.80;;;;;;;14.42;100.00;98763.91;5029199;28;20052;-92
2023/06/07 03:05:19;;;;;;;24.83;10.25;;;;;;;14.53;100.00;98796.41;5021967;28;20389;-94
2023/06/07 03:07:46;;;;;;;26.55;10.02;;;;;;;14.45;100.00;98792.34;5021914;28;20040;-92
2023/06/07 03:10:12;;;;;;;24.92;9.73;;;;;;;14.56;100.00;98801.66;5027543;28;20494;-93
2023/06/07 03:12:38;;;;;;;23.10;10.05;;;;;;;14.57;100.00;98800.75;5024077;28;20037;-94
2023/06/07 03:15:05;;;;;;;25.10;9.80;;;;;;;14.63;100.00;98798.72;5020237;28;20128;-92
2023/06/07 03:17:31;;;;;;;27.38;10.57;;;;;;;14.71;100.00;98802.81;5019704;28;20049;-93
2023/06/07 03:19:56;;;;;;;26.85;9.75;;;;;;;14.66;100.00;98793.22;5021855;28;20057;-93
2023/06/07 03:22:24;;;;;;;23.70;9.85;;;;;;;14.75;100.00;98807.09;5025381;28;20077;-93
2023/06/07 03:24:52;;;;;;;22.73;9.27;;;;;;;14.68;100.00;98792.25;5031471;28;20506;-92
2023/06/07 03:27:17;;;;;;;28.23;10.50;;;;;;;14.75;100.00;98804.41;5040640;28;20038;-92
2023/06/07 03:29:44;;;;;;;24.15;9.82;;;;;;;14.74;100.00;98793.78;5010833;28;20034;-92
2023/06/07 03:32:10;;;;;;;23.90;9.93;;;;;;;14.74;100.00;98799.13;5019956;28;20132;-93
2023/06/07 03:34:36;;;;;;;24.58;9.68;;;;;;;14.81;100.00;98805.94;5023398;28;20124;-93
2023/06/07 03:37:02;;;;;;;24.83;9.63;;;;;;;14.81;100.00;98802.41;5025438;28;20480;-92
2023/06/07 03:39:31;;;;;;;23.60;9.65;;;;;;;14.76;100.00;98784.72;5027217;28;20044;-93
2023/06/07 03:41:56;;;;;;;27.15;10.00;;;;;;;14.94;100.00;98815.22;5038438;28;20484;-93
2023/06/07 03:44:22;;;;;;;24.52;10.23;;;;;;;14.88;100.00;98794.03;5024805;28;20044;-93
2023/06/07 03:46:48;;;;;;;25.08;9.30;;;;;;;14.77;100.00;98773.09;5025315;28;20073;-93
2023/06/07 03:49:14;;;;;;;25.00;9.82;;;;;;;14.79;100.00;98779.25;5024259;28;20037;-93
2023/06/07 03:51:42;;;;;;;29.92;10.18;;;;;;;14.90;100.00;98796.66;5028017;28;20039;-93
2023/06/07 03:54:08;;;;;;;23.90;9.70;;;;;;;14.95;100.00;98810.72;5028277;28;20386;-92
2023/06/07 03:56:36;;;;;;;23.33;9.57;;;;;;;14.94;100.00;98806.28;5020774;28;20053;-91
2023/06/07 03:59:01;;;;;;;25.92;9.60;;;;;;;14.87;100.00;98803.00;5023815;28;20046;-93
2023/06/07 04:01:27;;;;;;;23.10;9.63;;;;;;;14.84;100.00;98792.44;5028915;28;20055;-93
2023/06/07 04:03:53;;;;;;;26.02;10.27;;;;;;;14.92;100.00;98800.13;5020603;28;20033;-95
2023/06/07 04:06:20;;;;;;;26.65;10.55;;;;;;;15.01;100.00;98810.44;5024816;28;20530;-92
2023/06/07 04:08:46;;;;;;;24.33;10.60;;;;;;;15.06;100.00;98813.78;5021949;28;20095;-92
2023/06/07 04:11:12;;;;;;;29.50;10.30;;;;;;;15.13;100.00;98819.72;5022525;28;20037;-93
2023/06/07 04:13:41;;;;;;;25.95;11.15;;;;;;;14.97;100.00;98806.16;5022773;28;20188;-92
2023/06/07 04:16:07;;;;;;;25.80;11.35;;;;;;;15.04;100.00;98809.44;5021689;28;20045;-92
2023/06/07 04:18:33;;;;;;;26.90;10.60;;;;;;;15.18;100.00;98821.28;5022349;28;20091;-91
2023/06/07 04:20:59;;;;;;;26.38;11.02;;;;;;;15.18;100.00;98796.31;5027564;28;20049;-92
2023/06/07 04:23:25;;;;;;;30.40;10.95;;;;;;;15.39;100.00;98811.38;5013873;28;20052;-92
2023/06/07 04:25:54;;;;;;;36.00;11.02;;;;;;;15.56;100.00;98823.13;5020525;28;20071;-92
2023/06/07 04:28:23;;;;;;;28.92;11.38;;;;;;;15.50;100.00;98791.25;5022867;28;20076;-92
2023/06/07 04:30:52;;;;;;;;;;;;;;;15.89;100.00;98819.81;5019695;28;20168;-94
2023/06/07 04:33:19;;;;;;;25.95;10.95;;;;;;;15.98;100.00;98814.91;5034570;28;19924;-93
2023/06/07 04:35:45;;;;;;;29.75;12.57;;;;;;;16.21;100.00;98805.72;5028026;28;20033;-92
2023/06/07 04:38:15;;;;;;;40.00;11.80;;;;;;;16.38;100.00;98801.34;5022888;28;20128;-92
2023/06/07 04:40:42;;;;;;;26.13;10.48;;;;;;;16.53;100.00;98802.38;5026862;28;20033;-93
2023/06/07 04:43:10;;;;;;;23.98;11.32;;;;;;;16.29;100.00;98770.47;5021739;28;20124;-92
2023/06/07 04:45:39;;;;;;;21.30;9.05;;;;;;;16.59;100.00;98810.09;5021058;28;20099;-92
2023/06/07 04:48:07;;;;;;;24.05;9.10;;;;;;;16.53;100.00;98797.88;5023874;28;20042;-92
2023/06/07 04:50:33;;;;;;;23.08;9.25;;;;;;;16.64;100.00;98798.19;5021336;28;20037;-93
2023/06/07 04:53:03;;;;;;;24.23;9.48;;;;;;;16.88;100.00;98781.78;5022977;28;20132;-93
2023/06/07 04:55:30;;;;;;;21.67;9.35;;;;;;;17.50;100.00;98818.78;5014297;28;20058;-92
2023/06/07 04:57:56;;;;;;;24.90;9.23;;;;;;;17.06;100.00;98798.72;5024018;28;20430;-93
2023/06/07 05:00:25;;;;;;;33.45;12.80;;;;;;;17.07;100.00;98813.91;5017852;28;20072;-93
2023/06/07 05:02:52;;;;;;;31.20;11.88;;;;;;;17.07;100.00;98815.72;5029939;28;20129;-94
2023/06/07 05:05:19;;;;;;;23.85;10.40;;;;;;;17.16;100.00;98817.94;5021372;28;20041;-90
2023/06/07 05:07:46;;;;;;;21.00;9.43;;;;;;;17.21;100.00;98829.31;5022013;28;20128;-94
2023/06/07 05:10:12;;;;;;;22.25;10.80;;;;;;;17.18;100.00;98816.03;5023058;28;20042;-93
2023/06/07 05:12:38;;;;;;;24.80;10.07;;;;;;;17.18;100.00;98816.03;5021574;28;20044;-93
2023/06/07 05:15:05;;;;;;;20.77;8.80;;;;;;;17.30;100.00;98830.63;5025978;28;20546;-94
2023/06/07 05:17:32;;;;;;;20.67;9.07;;;;;;;17.32;100.00;98817.97;5025684;28;20049;-92
2023/06/07 05:19:57;;;;;;;20.90;8.85;;;;;;;17.35;100.00;98831.22;5022361;28;20038;-93
2023/06/07 05:22:25;;;;;;;24.42;9.65;;;;;;;17.21;100.00;98807.81;5011729;28;20385;-93
2023/06/07 05:24:51;;;;;;;24.38;8.75;;;;;;;17.35;100.00;98826.75;5023724;28;20065;-93
2023/06/07 05:27:18;;;;;;;20.88;9.48;;;;;;;17.16;100.00;98836.75;5026705;28;20033;-92
2023/06/07 05:29:43;;;;;;;19.45;8.60;;;;;;;16.85;100.00;98814.19;5029726;28;20045;-93
2023/06/07 05:32:09;;;;;;;19.35;9.07;;;;;;;16.71;100.00;98830.09;5022685;28;20557;-92
2023/06/07 05:34:35;;;;;;;23.70;9.02;;;;;;;16.74;100.00;98833.50;5018567;28;20037;-93
2023/06/07 05:37:02;;;;;;;28.25;10.00;;;;;;;16.65;100.00;98831.25;5020017;28;20049;-92
2023/06/07 05:39:29;;;;;;;20.85;9.50;;;;;;;16.64;100.00;98803.56;5020118;28;20049;-90
2023/06/07 05:41:55;;;;;;;24.38;9.68;;;;;;;17.16;100.00;98826.00;5013695;28;20041;-91
2023/06/07 05:44:21;;;;;;;23.52;9.27;;;;;;;17.79;100.00;98825.28;5023289;28;20038;-91
2023/06/07 05:46:46;;;;;;;24.10;10.43;;;;;;;18.05;100.00;98829.22;5021134;28;20064;-91
2023/06/07 05:49:12;;;;;;;21.15;9.93;;;;;;;18.46;100.00;98809.81;5022206;28;20402;-92
2023/06/07 05:51:38;;;;;;;25.80;9.70;;;;;;;18.99;100.00;98821.06;5017653;28;20469;-91
2023/06/07 05:54:06;;;;;;;24.63;9.20;;;;;;;18.98;100.00;98812.13;5016369;28;20051;-92
2023/06/07 05:56:34;;;;;;;20.55;8.63;;;;;;;19.47;100.00;98825.28;5018444;28;20111;-91
2023/06/07 05:59:00;;;;;;;25.70;9.55;;;;;;;19.78;100.00;98817.06;5021888;28;20040;-92
2023/06/07 06:01:27;;;;;;;21.60;8.77;;;;;;;19.92;100.00;98803.56;5015146;28;20095;-93
2023/06/07 06:03:52;;;;;;;15.77;8.15;;;;;;;20.31;100.00;98810.00;5019519;28;20119;-93
2023/06/07 06:06:18;;;;;;;20.33;8.80;;;;;;;20.41;100.00;98808.44;5042266;28;20491;-93
2023/06/07 06:08:45;;;;;;;15.07;7.50;;;;;;;20.56;100.00;98800.25;5021579;28;20099;-93
2023/06/07 06:11:12;;;;;;;18.17;8.55;;;;;;;20.81;100.00;98799.50;5025786;28;20554;-94
2023/06/07 06:13:40;;;;;;;16.80;7.95;;;;;;;20.65;100.00;98824.88;5023038;28;20038;-93
2023/06/07 06:16:06;;;;;;;17.75;7.85;;;;;;;21.15;100.00;98819.66;5018298;28;20520;-92
2023/06/07 06:18:32;;;;;;;16.58;7.85;;;;;;;20.95;100.00;98794.00;5021090;28;20041;-93
2023/06/07 06:20:58;;;;;;;17.05;8.00;;;;;;;21.11;100.00;98800.06;5023168;28;20487;-91
2023/06/07 06:23:24;;;;;;;18.42;7.57;;;;;;;21.21;100.00;98796.72;5025216;28;20049;-92
2023/06/07 06:25:51;;;;;;;14.93;6.63;;;;;;;21.36;100.00;98792.94;5021286;28;20041;-93
2023/06/07 06:28:16;;;;;;;16.88;7.53;;;;;;;21.91;100.00;98810.63;5026790;28;20092;-93
2023/06/07 06:30:44;;;;;;;16.70;7.43;;;;;;;22.30;100.00;98824.09;5027356;28;20064;-93
2023/06/07 06:33:10;;;;;;;14.90;7.45;;;;;;;22.35;100.00;98811.91;5026945;28;20041;-94
2023/06/07 06:35:37;;;;;;;17.90;7.57;;;;;;;22.64;100.00;98824.25;5023170;28;20046;-91
2023/06/07 06:38:03;;;;;;;17.35;8.65;;;;;;;22.72;98.75;98803.72;5020302;28;20099;-94
2023/06/07 06:40:29;;;;;;;11.75;7.10;;;;;;;22.81;99.16;98807.56;5022002;28;20049;-93
2023/06/07 06:42:55;;;;;;;16.63;7.90;;;;;;;22.67;98.18;98792.38;5025603;28;20041;-95
2023/06/07 06:45:21;;;;;;;15.15;7.80;;;;;;;22.37;99.36;98821.78;5034495;28;20239;-94
2023/06/07 06:47:48;;;;;;;16.52;8.10;;;;;;;21.58;100.00;98816.66;5026872;28;20041;-94
2023/06/07 06:50:14;;;;;;;15.57;7.90;;;;;;;22.13;100.00;98830.72;5027134;28;20045;-93
2023/06/07 06:52:41;;;;;;;15.90;8.48;;;;;;;21.81;100.00;98811.41;5020955;28;20038;-93
2023/06/07 06:55:07;;;;;;;19.92;8.07;;;;;;;22.06;100.00;98810.50;5027858;28;20450;-94
2023/06/07 06:57:35;;;;;;;18.25;8.63;;;;;;;21.96;100.00;98818.41;5021479;28;20058;-95
2023/06/07 07:00:10;;;;;;;24.58;8.95;;;;;;;21.85;100.00;98813.78;5023304;28;20036;-94
2023/06/07 07:02:36;;;;;;;19.48;8.27;;;;;;;22.08;100.00;98833.78;5023464;28;20450;-94
2023/06/07 07:05:05;;;;;;;14.80;7.10;;;;;;;21.78;100.00;98817.94;5024498;28;20068;-93
2023/06/07 07:07:31;;;;;;;16.27;8.18;;;;;;;21.73;100.00;98829.09;5024508;28;20048;-93
2023/06/07 07:09:57;;;;;;;21.25;9.05;;;;;;;21.78;100.00;98825.19;5028821;28;20041;-94
2023/06/07 07:12:23;;;;;;;16.45;8.57;;;;;;;22.42;100.00;98833.16;5024932;28;20048;-94
2023/06/07 07:14:49;;;;;;;16.38;8.43;;;;;;;22.71;99.01;98815.56;5030340;28;20060;-93
2023/06/07 07:17:15;;;;;;;18.95;9.27;;;;;;;23.02;97.67;98815.94;5023312;28;20041;-95
2023/06/07 07:19:41;;;;;;;21.33;8.52;;;;;;;23.13;97.67;98805.09;5026414;28;20065;-95
2023/06/07 07:22:09;;;;;;;17.52;8.25;;;;;;;23.40;95.63;98825.66;5026410;28;20128;-94
2023/06/07 07:24:35;;;;;;;19.73;8.32;;;;;;;22.97;96.55;98820.81;5022668;28;20038;-93
2023/06/07 07:27:01;;;;;;;15.90;7.35;;;;;;;22.68;100.00;98831.19;5023845;28;20049;-93
2023/06/07 07:29:27;;;;;;;20.63;9.18;;;;;;;21.32;100.00;98818.47;5023969;28;20515;-92
2023/06/07 07:31:53;;;;;;;21.65;9.15;;;;;;;21.27;100.00;98826.03;5025612;28;20044;-93
2023/06/07 07:34:19;;;;;;;18.60;8.60;;;;;;;21.45;100.00;98813.09;5027852;28;20038;-94
2023/06/07 07:36:44;;;;;;;19.63;9.18;;;;;;;22.00;100.00;98819.94;5022652;28;20042;-92
2023/06/07 07:39:15;;;;;;;17.90;8.40;;;;;;;22.86;100.00;98827.06;5021933;28;20038;-92
2023/06/07 07:41:41;;;;;;;19.48;8.95;;;;;;;22.95;94.81;98822.78;5022293;28;20037;-93
2023/06/07 07:44:07;;;;;;;16.00;8.23;;;;;;;23.23;96.57;98797.13;5021821;28;20034;-94
2023/06/07 07:46:33;;;;;;;15.90;7.45;;;;;;;23.38;95.23;98795.06;5024940;28;20435;-94
2023/06/07 07:48:59;;;;;;;15.73;7.90;;;;;;;23.71;95.06;98818.63;5025715;28;20044;-93
2023/06/07 07:51:26;;;;;;;20.92;7.72;;;;;;;24.01;90.58;98800.88;5023855;28;20578;-94
2023/06/07 07:53:52;;;;;;;16.90;7.95;;;;;;;24.29;90.53;98818.47;5021008;28;20042;-93
2023/06/07 07:56:21;;;;;;;15.55;8.07;;;;;;;23.96;88.63;98811.22;5020791;28;20839;-94
2023/06/07 07:58:47;;;;;;;15.30;8.50;;;;;;;23.35;89.12;98815.13;5021249;28;20041;-93
2023/06/07 08:01:15;;;;;;;17.88;8.02;;;;;;;23.11;93.83;98812.50;5022467;28;20123;-94
2023/06/07 08:03:41;;;;;;;15.57;7.68;;;;;;;23.24;95.59;98801.56;5021119;28;20040;-93
2023/06/07 08:06:06;;;;;;;16.92;7.90;;;;;;;24.02;92.50;98813.44;5025994;28;20037;-93
2023/06/07 08:08:33;;;;;;;12.98;7.50;;;;;;;24.36;87.71;98799.78;5020982;28;20079;-94
2023/06/07 08:11:00;;;;;;;15.50;7.80;;;;;;;24.70;84.02;98803.28;5019678;28;20122;-93
2023/06/07 08:13:28;;;;;;;15.07;8.30;;;;;;;23.73;88.33;98803.06;5022388;28;20041;-95
2023/06/07 08:15:54;;;;;;;16.05;7.93;;;;;;;23.73;88.42;98791.34;5016232;28;20499;-94
2023/06/07 08:18:20;;;;;;;16.35;7.20;;;;;;;24.04;88.21;98806.03;5026813;28;20045;-93
2023/06/07 08:20:46;;;;;;;12.48;6.65;;;;;;;24.24;85.16;98789.94;5018508;28;20073;-94
2023/06/07 08:23:11;;;;;;;12.10;7.00;;;;;;;24.65;82.15;98794.63;5023731;28;20123;-93
2023/06/07 08:25:37;;;;;;;15.80;8.32;;;;;;;24.74;79.27;98788.41;5019326;28;20045;-94
2023/06/07 08:28:04;;;;;;;15.90;6.80;;;;;;;25.35;78.63;98795.91;5021167;28;20073;-93
2023/06/07 08:30:32;;;;;;;10.95;6.32;;;;;;;25.45;74.75;98773.31;5023301;28;20038;-92
2023/06/07 08:32:57;;;;;;;12.80;7.28;;;;;;;25.45;77.35;98768.72;5018198;28;20434;-93
2023/06/07 08:35:23;;;;;;;14.00;7.50;;;;;;;25.17;75.82;98771.09;5016627;28;20050;-94
2023/06/07 08:37:49;;;;;;;12.18;6.88;;;;;;;25.49;75.45;98800.13;5023975;28;20041;-94
2023/06/07 08:40:18;;;;;;;17.40;7.38;;;;;;;24.72;77.86;98774.13;5023364;28;20037;-94
2023/06/07 08:42:45;;;;;;;14.48;7.80;;;;;;;24.59;81.73;98773.41;5022847;28;20116;-93
2023/06/07 08:45:10;;;;;;;15.27;7.63;;;;;;;25.05;77.57;98774.03;5040402;28;20128;-93
2023/06/07 08:47:42;;;;;;;18.65;8.18;;;;;;;25.28;76.08;98797.41;5025881;28;20092;-92
2023/06/07 08:50:13;;;;;;;18.55;9.18;;;;;;;24.18;78.10;98804.88;5019262;28;20490;-93
2023/06/07 08:52:41;;;;;;;13.95;8.02;;;;;;;24.01;80.06;98775.53;5024336;28;20037;-95
2023/06/07 08:55:12;;;;;;;18.53;8.20;;;;;;;24.82;78.82;98789.63;5024240;28;20052;-93
2023/06/07 08:57:38;;;;;;;19.77;8.25;;;;;;;25.13;76.01;98779.69;5019982;28;20068;-94
2023/06/07 09:00:06;;;;;;;17.02;8.65;;;;;;;25.33;74.88;98772.50;5016592;28;20041;-95
2023/06/07 09:02:32;;;;;;;;;;;;;;;25.72;72.17;98799.94;5004333;28;20042;-93
2023/06/07 09:05:01;;;;;;;;;;;;;;;25.43;75.47;98789.75;5024748;28;19921;-93
2023/06/07 09:07:27;;;;;;;;;;;;;;;25.00;76.75;98793.47;5018198;28;19993;-94
2023/06/07 09:09:52;;;;;;;;;;;;;;;24.55;78.48;98799.16;5020067;28;19964;-93
2023/06/07 09:12:18;;;;;;;;;;;;;;;25.38;78.21;98787.47;5024722;28;19927;-93
2023/06/07 09:14:45;;;;;;;;;;;;;;;25.71;68.87;98787.31;5020792;28;19931;-93
2023/06/07 09:17:11;;;;;;;;;;;;;;;25.23;71.10;98786.09;5016745;28;19921;-92
2023/06/07 09:19:37;;;;;;;;;;;;;;;24.62;77.44;98789.47;5021806;28;20019;-93
2023/06/07 09:22:05;;;;;;;;;;;;;;;24.89;67.70;98782.66;5016892;28;20107;-95
2023/06/07 09:24:31;;;;;;;;;;;;;;;24.79;68.90;98778.03;5019519;28;19959;-92
2023/06/07 09:26:57;;;;;;;;;;;;;;;24.82;69.63;98779.59;5026463;28;20362;-93
2023/06/07 09:29:23;;;;;;;;;;;;;;;25.14;68.71;98778.69;5018668;28;20011;-93
2023/06/07 09:31:48;;;;;;;;;;;;;;;25.74;64.09;98781.59;5021212;28;19929;-93
2023/06/07 09:34:21;;;;;;;;;;;;;;;26.27;58.75;98773.16;5021594;28;19935;-93
2023/06/07 09:36:50;;;;;;;;;;;;;;;26.44;57.99;98775.19;5020083;28;20382;-93
2023/06/07 09:39:21;;;;;;;;;;;;;;;26.02;59.65;98778.16;5023062;28;19920;-94
2023/06/07 09:41:46;;;;;;;;;;;;;;;25.24;59.02;98767.88;5026424;28;19925;-93
2023/06/07 09:44:20;;;;;;;;;;;;;;;25.31;58.65;98767.22;5022510;28;20440;-94
2023/06/07 09:46:45;;;;;;;;;;;;;;;25.32;61.61;98766.22;5020273;28;19928;-93
2023/06/07 09:49:11;;;;;;;;;;;;;;;25.26;58.68;98765.88;5021080;28;19921;-94
2023/06/07 09:51:40;;;;;;;;;;;;;;;25.11;60.02;98766.22;5018925;28;19963;-93
2023/06/07 09:54:08;;;;;;;;;;;;;;;25.83;57.60;98770.75;5021857;28;19921;-93
2023/06/07 09:56:38;;;;;;;;;;;;;;;25.50;58.53;98761.00;5013894;28;19966;-94
2023/06/07 09:59:07;;;;;;;;;;;;;;;25.89;57.32;98760.31;5021404;28;19930;-95
2023/06/07 10:01:42;;;;;;;;;;;;;;;26.15;57.59;98763.38;5017445;28;19931;-93
2023/06/07 10:04:08;;;;;;;;;;;;;;;26.71;57.68;98760.00;5021613;28;19986;-93
2023/06/07 10:06:37;;;;;;;;;;;;;;;26.95;55.63;98762.28;5023106;28;19999;-94
2023/06/07 10:09:04;;;;;;;;;;;;;;;27.10;56.58;98765.41;5021225;28;20258;-93
2023/06/07 10:11:30;;;;;;;;;;;;;;;26.90;57.79;98759.13;5020291;28;19925;-94
2023/06/07 10:13:59;;;;;;;;;;;;;;;25.26;59.56;98765.88;5024571;28;19921;-94
2023/06/07 10:16:27;;;;;;;;;;;;;;;24.73;59.24;98767.66;5018049;28;19929;-94
2023/06/07 10:18:55;;;;;;;;;;;;;;;24.12;60.45;98770.94;5025642;28;19924;-95
2023/06/07 10:21:21;;;;;;;;;;;;;;;23.57;64.62;98765.44;5018994;28;19921;-94
2023/06/07 10:23:50;;;;;;;;;;;;;;;23.39;64.87;98766.91;5019530;28;20039;-93
2023/06/07 10:26:18;;;;;;;;;;;;;;;23.08;64.67;98763.94;5017336;28;19921;-92
2023/06/07 10:28:46;;;;;;;;;;;;;;;22.82;65.97;98762.38;5019978;28;19925;-92
2023/06/07 10:31:15;;;;;;;;;;;;;;;23.26;63.21;98761.59;5024735;28;19927;-94
2023/06/07 10:33:42;;;;;;;;;;;;;;;23.68;63.18;98751.00;5019865;28;19921;-94
2023/06/07 10:36:08;;;;;;;;;;;;;;;23.93;61.73;98749.00;5021755;28;19948;-93
2023/06/07 10:38:33;;;;;;;;;;;;;;;23.97;60.11;98750.50;5017727;28;19921;-94
2023/06/07 10:41:01;;;;;;;;;;;;;;;24.14;57.90;98751.81;5016325;28;20351;-94
2023/06/07 10:43:28;;;;;;;;;;;;;;;24.30;59.23;98749.53;5016032;28;19931;-93
2023/06/07 10:46:08;;;;;;;;;;;;;;;24.54;60.60;98756.63;5015395;28;19921;-94
2023/06/07 10:48:35;;;;;;;;;;;;;;;25.21;56.08;98744.53;5016139;28;19965;-95
2023/06/07 10:51:01;;;;;;;;;;;;;;;25.20;54.81;98740.94;5015352;28;20453;-91
2023/06/07 10:53:48;;;;;;;;;;;;;;;24.86;57.01;98743.00;5013327;28;20036;-95
2023/06/07 10:56:27;;;;;;;;;;;;;;;24.78;57.88;98743.66;5027174;28;19928;-92
2023/06/07 10:58:53;;;;;;;;;;;;;;;24.29;59.75;98749.63;5023088;28;20375;-92
2023/06/07 11:01:23;;;;;;;;;;;;;;;24.09;58.91;98748.59;5023376;28;19920;-94
2023/06/07 11:03:50;;;;;;;;;;;;;;;23.80;60.48;98749.16;5025478;28;20375;-94
2023/06/07 11:06:16;;;;;;;;;;;;;;;23.58;61.20;98747.31;5022395;28;19921;-93
2023/06/07 11:08:43;;;;;;;;;;;;;;;23.54;61.59;98743.09;5024295;28;19921;-93
2023/06/07 11:11:27;;;;;;;;;;;;;;;23.37;62.49;98741.75;5029631;28;20031;-95
2023/06/07 11:14:09;;;;;;;;;;;;;;;23.22;62.84;98738.41;5024539;28;19946;-92
2023/06/07 11:16:36;;;;;;;;;;;;;;;23.61;62.91;98735.31;5015604;28;19944;-93
2023/06/07 11:19:07;;;;;;;;;;;;;;;23.68;62.44;98739.25;5024334;28;19926;-94
2023/06/07 11:21:48;;;;;;;;;;;;;;;23.61;60.16;98738.91;5017178;28;19929;-94
2023/06/07 11:24:14;;;;;;;;;;;;;;;23.86;58.44;98732.38;5009876;28;19925;-93
2023/06/07 11:26:41;;;;;;;;;;;;;;;24.26;57.77;98729.03;5024850;28;19921;-95
2023/06/07 11:29:08;;;;;;;;;;;;;;;24.89;55.68;98712.78;5024232;28;20008;-93
2023/06/07 11:31:34;;;;;;;;;;;;;;;25.13;52.65;98715.22;5026611;28;20302;-93
2023/06/07 11:33:59;;;;;;;;;;;;;;;25.48;54.08;98711.28;5027572;28;19921;-92